Time;durP1;ratioP1;P1;durP2;ratioP2;P2;SDS_P1;SDS_P2;PMS_P1;PMS_P2;Temp;Humidity;BMP_temperature;BMP_pressure;BME280_temperature;BME280_humidity;BME280_pressure;Samples;Min_cycle;Max_cycle;Signal;HPM_P1;HPM_P2
2024/03/07 00:00:07;;;;;;;38.58;21.23;;;;;;;;;;4994134;28;20034;-77
2024/03/07 00:02:38;;;;;;;51.35;27.88;;;;;;;;;;4994285;28;20156;-76
2024/03/07 00:05:03;;;;;;;44.55;24.00;;;;;;;;;;4993114;28;20686;-77
2024/03/07 00:07:28;;;;;;;41.65;23.00;;;;;;;;;;4992632;28;20042;-76
2024/03/07 00:09:55;;;;;;;38.15;22.08;;;;;;;;;;4994781;28;20038;-77
2024/03/07 00:12:22;;;;;;;39.40;23.05;;;;;;;;;;4993910;28;20447;-77
2024/03/07 00:14:47;;;;;;;42.05;23.90;;;;;;;;;;4996924;28;20518;-77
2024/03/07 00:17:13;;;;;;;40.30;21.90;;;;;;;;;;4993779;28;20034;-78
2024/03/07 00:19:39;;;;;;;36.38;21.45;;;;;;;;;;4993976;28;20045;-77
2024/03/07 00:22:04;;;;;;;34.15;20.73;;;;;;;;;;4992209;28;20038;-76
2024/03/07 00:24:29;;;;;;;34.58;20.23;;;;;;;;;;4996541;28;20033;-77
2024/03/07 00:26:56;;;;;;;31.80;18.88;;;;;;;;;;4993898;28;20065;-76
2024/03/07 00:29:23;;;;;;;32.78;19.10;;;;;;;;;;4993648;28;20113;-76
2024/03/07 00:31:48;;;;;;;36.17;21.80;;;;;;;;;;4989367;28;20031;-77
2024/03/07 00:34:15;;;;;;;35.03;21.65;;;;;;;;;;4997251;28;20634;-77
2024/03/07 00:36:41;;;;;;;34.28;21.38;;;;;;;;;;4993579;28;20160;-76
2024/03/07 00:39:08;;;;;;;36.92;21.33;;;;;;;;;;4993688;28;20117;-77
2024/03/07 00:41:33;;;;;;;33.03;19.42;;;;;;;;;;4991764;28;20049;-77
2024/03/07 00:43:58;;;;;;;33.60;19.42;;;;;;;;;;4994061;28;20039;-76
2024/03/07 00:46:24;;;;;;;34.28;23.17;;;;;;;;;;4993266;28;20046;-77
2024/03/07 00:48:49;;;;;;;29.48;19.08;;;;;;;;;;4993551;28;20491;-76
2024/03/07 00:51:14;;;;;;;34.45;19.77;;;;;;;;;;4992730;28;20070;-77
2024/03/07 00:53:40;;;;;;;35.63;21.40;;;;;;;;;;4997864;28;20108;-76
2024/03/07 00:56:06;;;;;;;31.45;18.77;;;;;;;;;;4993163;28;20168;-77
2024/03/07 00:58:31;;;;;;;32.72;18.50;;;;;;;;;;4992980;28;20461;-76
2024/03/07 01:00:57;;;;;;;32.05;18.92;;;;;;;;;;4993151;28;20038;-77
2024/03/07 01:03:24;;;;;;;34.03;19.77;;;;;;;;;;4996706;28;20030;-77
2024/03/07 01:05:49;;;;;;;31.20;19.25;;;;;;;;;;4986876;28;20384;-75
2024/03/07 01:08:14;;;;;;;28.13;18.88;;;;;;;;;;4993083;28;20041;-76
2024/03/07 01:10:39;;;;;;;28.35;18.38;;;;;;;;;;4991856;28;20026;-77
2024/03/07 01:13:07;;;;;;;27.92;17.25;;;;;;;;;;4993372;28;20563;-76
2024/03/07 01:15:34;;;;;;;34.00;20.48;;;;;;;;;;4996390;28;20037;-76
2024/03/07 01:17:59;;;;;;;27.10;16.92;;;;;;;;;;4992897;28;20034;-77
2024/03/07 01:20:25;;;;;;;29.77;18.60;;;;;;;;;;4994450;28;20057;-77
2024/03/07 01:22:51;;;;;;;27.10;17.55;;;;;;;;;;4993646;28;20102;-77
2024/03/07 01:25:16;;;;;;;31.00;19.20;;;;;;;;;;4993062;28;20049;-77
2024/03/07 01:27:41;;;;;;;28.30;17.48;;;;;;;;;;4992817;28;20070;-77
2024/03/07 01:30:08;;;;;;;30.75;19.38;;;;;;;;;;4992665;28;20109;-77
2024/03/07 01:32:33;;;;;;;28.85;16.75;;;;;;;;;;4994013;28;20057;-77
2024/03/07 01:34:58;;;;;;;29.67;19.45;;;;;;;;;;4994734;28;20499;-77
2024/03/07 01:37:23;;;;;;;29.55;18.45;;;;;;;;;;4992379;28;20039;-77
2024/03/07 01:39:48;;;;;;;32.08;18.35;;;;;;;;;;4991895;28;20050;-76
2024/03/07 01:42:14;;;;;;;31.58;18.75;;;;;;;;;;4992056;28;20030;-79
2024/03/07 01:44:41;;;;;;;29.50;17.55;;;;;;;;;;4998192;28;20026;-77
2024/03/07 01:47:07;;;;;;;30.67;18.13;;;;;;;;;;4991986;28;20169;-77
2024/03/07 01:49:32;;;;;;;29.77;19.70;;;;;;;;;;4991087;28;20061;-77
2024/03/07 01:51:58;;;;;;;30.42;19.60;;;;;;;;;;4991862;28;20158;-76
2024/03/07 01:54:23;;;;;;;28.23;18.23;;;;;;;;;;4996216;28;20053;-77
2024/03/07 01:56:49;;;;;;;28.73;18.38;;;;;;;;;;4992336;28;20038;-77
2024/03/07 01:59:15;;;;;;;30.52;18.60;;;;;;;;;;4992157;28;20038;-76
2024/03/07 02:01:40;;;;;;;31.85;19.67;;;;;;;;;;4988214;28;20049;-76
2024/03/07 02:04:05;;;;;;;28.13;17.75;;;;;;;;;;4992825;28;20038;-77
2024/03/07 02:06:31;;;;;;;32.95;20.55;;;;;;;;;;4991797;28;20120;-77
2024/03/07 02:08:57;;;;;;;35.28;20.08;;;;;;;;;;4993212;28;20030;-77
2024/03/07 02:11:23;;;;;;;30.40;19.33;;;;;;;;;;4991249;28;20044;-76
2024/03/07 02:13:48;;;;;;;30.00;18.40;;;;;;;;;;4995961;28;20154;-77
2024/03/07 02:16:14;;;;;;;34.58;20.35;;;;;;;;;;4991259;28;20038;-77
2024/03/07 02:18:39;;;;;;;30.33;18.42;;;;;;;;;;4991200;28;20058;-76
2024/03/07 02:21:08;;;;;;;28.00;17.42;;;;;;;;;;4991658;28;20031;-77
2024/03/07 02:23:34;;;;;;;34.78;19.30;;;;;;;;;;4995772;28;20054;-76
2024/03/07 02:25:59;;;;;;;31.15;19.45;;;;;;;;;;4993405;28;20428;-76
2024/03/07 02:28:24;;;;;;;35.80;20.92;;;;;;;;;;4991547;28;20608;-76
2024/03/07 02:30:49;;;;;;;30.10;18.55;;;;;;;;;;4991365;28;20042;-77
2024/03/07 02:33:14;;;;;;;29.88;17.90;;;;;;;;;;4991627;28;20088;-77
2024/03/07 02:35:40;;;;;;;32.70;19.30;;;;;;;;;;4994747;28;20034;-76
2024/03/07 02:38:05;;;;;;;33.35;21.10;;;;;;;;;;4991489;28;20045;-76
2024/03/07 02:40:31;;;;;;;29.65;17.77;;;;;;;;;;4991190;28;20096;-76
2024/03/07 02:42:56;;;;;;;33.75;21.40;;;;;;;;;;4992536;28;20065;-76
2024/03/07 02:45:21;;;;;;;32.75;20.40;;;;;;;;;;4991668;28;20033;-76
2024/03/07 02:47:46;;;;;;;40.00;22.35;;;;;;;;;;4991336;28;20546;-75
2024/03/07 02:50:12;;;;;;;31.55;21.00;;;;;;;;;;4991089;28;20038;-76
2024/03/07 02:52:37;;;;;;;33.70;21.08;;;;;;;;;;4991784;28;20038;-77
2024/03/07 02:55:04;;;;;;;35.47;21.27;;;;;;;;;;4993996;28;20061;-76
2024/03/07 02:57:30;;;;;;;34.25;22.27;;;;;;;;;;4990832;28;20085;-76
2024/03/07 02:59:56;;;;;;;33.50;21.92;;;;;;;;;;4990898;28;20102;-78
2024/03/07 03:02:21;;;;;;;34.63;23.73;;;;;;;;;;4990472;28;20026;-77
2024/03/07 03:04:47;;;;;;;33.58;19.83;;;;;;;;;;4993078;28;20037;-76
2024/03/07 03:07:12;;;;;;;37.33;23.63;;;;;;;;;;4991151;28;20034;-76
2024/03/07 03:09:42;;;;;;;34.30;22.52;;;;;;;;;;4990704;28;20022;-76
2024/03/07 03:12:08;;;;;;;34.35;21.75;;;;;;;;;;4987043;28;20035;-76
2024/03/07 03:14:33;;;;;;;44.47;22.45;;;;;;;;;;4994645;28;20022;-77
2024/03/07 03:16:58;;;;;;;41.58;23.50;;;;;;;;;;4990798;28;20604;-75
2024/03/07 03:19:25;;;;;;;35.10;21.88;;;;;;;;;;4990599;28;20042;-76
2024/03/07 03:21:50;;;;;;;38.13;22.08;;;;;;;;;;4991358;28;20498;-76
2024/03/07 03:24:15;;;;;;;37.00;23.25;;;;;;;;;;4995641;28;20027;-77
2024/03/07 03:26:42;;;;;;;38.35;23.50;;;;;;;;;;4990608;28;20038;-77
2024/03/07 03:29:09;;;;;;;41.25;26.10;;;;;;;;;;4993018;28;20038;-77
2024/03/07 03:31:35;;;;;;;38.78;23.42;;;;;;;;;;4989964;28;20069;-77
2024/03/07 03:34:00;;;;;;;37.85;24.40;;;;;;;;;;4991162;28;20030;-77
2024/03/07 03:36:26;;;;;;;41.28;22.50;;;;;;;;;;4990534;28;20554;-77
2024/03/07 03:38:51;;;;;;;35.22;21.10;;;;;;;;;;4990644;28;20121;-76
2024/03/07 03:41:16;;;;;;;38.45;23.85;;;;;;;;;;4989506;28;20042;-77
2024/03/07 03:43:42;;;;;;;42.33;26.88;;;;;;;;;;4994421;28;20557;-76
2024/03/07 03:46:10;;;;;;;43.25;26.17;;;;;;;;;;4992322;28;20036;-77
2024/03/07 03:48:35;;;;;;;38.95;24.00;;;;;;;;;;4988520;28;20407;-76
2024/03/07 03:51:00;;;;;;;36.70;22.30;;;;;;;;;;4990420;28;20034;-77
2024/03/07 03:53:25;;;;;;;38.15;22.77;;;;;;;;;;4990371;28;20026;-76
2024/03/07 03:55:51;;;;;;;36.97;24.05;;;;;;;;;;4993877;28;20478;-76
2024/03/07 03:58:16;;;;;;;39.95;24.30;;;;;;;;;;4990285;28;20045;-76
2024/03/07 04:00:42;;;;;;;39.92;24.48;;;;;;;;;;4989264;28;20046;-77
2024/03/07 04:03:07;;;;;;;41.25;24.08;;;;;;;;;;4991455;28;20038;-76
2024/03/07 04:05:32;;;;;;;40.55;24.80;;;;;;;;;;4990732;28;20030;-77
2024/03/07 04:07:58;;;;;;;43.13;26.80;;;;;;;;;;4990416;28;20033;-76
2024/03/07 04:10:23;;;;;;;38.70;22.25;;;;;;;;;;4990162;28;20052;-76
2024/03/07 04:12:49;;;;;;;43.03;26.35;;;;;;;;;;4995081;28;20041;-76
2024/03/07 04:15:18;;;;;;;43.20;25.33;;;;;;;;;;4992515;28;20084;-76
2024/03/07 04:17:45;;;;;;;37.83;23.25;;;;;;;;;;4990192;28;20044;-76
2024/03/07 04:20:10;;;;;;;41.90;24.90;;;;;;;;;;4990249;28;20022;-77
2024/03/07 04:22:38;;;;;;;39.17;25.75;;;;;;;;;;4989621;28;20038;-76
2024/03/07 04:25:04;;;;;;;42.83;26.70;;;;;;;;;;4991490;28;20121;-77
2024/03/07 04:27:30;;;;;;;41.55;26.10;;;;;;;;;;4990214;28;20113;-77
2024/03/07 04:29:55;;;;;;;43.47;24.92;;;;;;;;;;4990094;28;20038;-77
2024/03/07 04:32:21;;;;;;;43.78;26.23;;;;;;;;;;4989579;28;20038;-77
2024/03/07 04:34:46;;;;;;;43.80;25.52;;;;;;;;;;4993996;28;20085;-76
2024/03/07 04:37:11;;;;;;;43.58;25.35;;;;;;;;;;4984219;28;20031;-77
2024/03/07 04:39:37;;;;;;;43.25;23.75;;;;;;;;;;4990044;28;20069;-77
2024/03/07 04:42:03;;;;;;;38.40;23.25;;;;;;;;;;4993048;28;20475;-77
2024/03/07 04:44:28;;;;;;;41.50;24.60;;;;;;;;;;4994990;28;20035;-77
2024/03/07 04:46:56;;;;;;;47.13;24.45;;;;;;;;;;4993348;28;20627;-77
2024/03/07 04:49:25;;;;;;;42.97;25.88;;;;;;;;;;4993434;28;20064;-77
2024/03/07 04:51:54;;;;;;;34.40;20.98;;;;;;;;;;4997264;28;20121;-77
2024/03/07 04:54:19;;;;;;;40.33;23.15;;;;;;;;;;4997015;28;20037;-77
2024/03/07 04:56:49;;;;;;;40.80;24.77;;;;;;;;;;4992848;28;20483;-78
2024/03/07 04:59:14;;;;;;;39.30;23.65;;;;;;;;;;4993177;28;20066;-77
2024/03/07 05:01:40;;;;;;;38.92;23.85;;;;;;;;;;4992615;28;20053;-78
2024/03/07 05:04:05;;;;;;;39.55;24.35;;;;;;;;;;4998723;28;20495;-78
2024/03/07 05:06:33;;;;;;;43.38;24.60;;;;;;;;;;4990840;28;20125;-78
2024/03/07 05:08:59;;;;;;;39.97;24.23;;;;;;;;;;4991459;28;20038;-78
2024/03/07 05:11:24;;;;;;;42.17;23.98;;;;;;;;;;4991190;28;20042;-77
2024/03/07 05:13:49;;;;;;;42.28;24.67;;;;;;;;;;4993433;28;20034;-76
2024/03/07 05:16:14;;;;;;;36.67;22.30;;;;;;;;;;4996027;28;20034;-76
2024/03/07 05:18:43;;;;;;;38.42;22.65;;;;;;;;;;4992477;28;20034;-77
2024/03/07 05:21:34;;;;;;;39.40;23.20;;;;;;;;;;4995117;28;20487;-76
2024/03/07 05:23:53;;;;;;;39.45;23.20;;;;;;;;;;4994301;28;20030;-78
2024/03/07 05:26:19;;;;;;;50.78;31.20;;;;;;;;;;4993747;28;20041;-78
2024/03/07 05:28:44;;;;;;;39.83;23.58;;;;;;;;;;4992808;28;20034;-77
2024/03/07 05:31:12;;;;;;;34.10;21.63;;;;;;;;;;4992097;28;20030;-77
2024/03/07 05:33:38;;;;;;;39.53;24.00;;;;;;;;;;4994253;28;20031;-77
2024/03/07 05:36:14;;;;;;;39.63;23.13;;;;;;;;;;4991623;28;20408;-76
2024/03/07 05:38:39;;;;;;;39.47;24.27;;;;;;;;;;4990286;28;20144;-77
2024/03/07 05:41:04;;;;;;;35.88;21.95;;;;;;;;;;4992330;28;20074;-77
2024/03/07 05:43:30;;;;;;;32.30;19.58;;;;;;;;;;4989986;28;20033;-76
2024/03/07 05:45:56;;;;;;;36.47;21.55;;;;;;;;;;4991830;28;20457;-77
2024/03/07 05:48:21;;;;;;;34.67;20.73;;;;;;;;;;4991967;28;20034;-77
2024/03/07 05:50:46;;;;;;;40.60;20.30;;;;;;;;;;4992064;28;20109;-77
2024/03/07 05:53:11;;;;;;;38.67;20.45;;;;;;;;;;4992140;28;20129;-77
2024/03/07 05:55:36;;;;;;;41.22;23.25;;;;;;;;;;4991894;28;20046;-77
2024/03/07 05:58:02;;;;;;;39.38;22.02;;;;;;;;;;4992022;28;20036;-77
2024/03/07 06:00:27;;;;;;;40.80;20.67;;;;;;;;;;4991707;28;20038;-76
2024/03/07 06:02:53;;;;;;;39.67;22.63;;;;;;;;;;4996913;28;20073;-77
2024/03/07 06:05:19;;;;;;;44.25;24.00;;;;;;;;;;4992086;28;20030;-77
2024/03/07 06:07:47;;;;;;;39.97;23.48;;;;;;;;;;4994591;28;20105;-77
2024/03/07 06:10:12;;;;;;;32.10;19.67;;;;;;;;;;4991877;28;20064;-77
2024/03/07 06:12:40;;;;;;;32.90;18.73;;;;;;;;;;4990132;28;20447;-76
2024/03/07 06:15:05;;;;;;;37.65;22.20;;;;;;;;;;4992557;28;20561;-77
2024/03/07 06:17:31;;;;;;;33.10;18.65;;;;;;;;;;4991651;28;20038;-77
2024/03/07 06:19:56;;;;;;;36.08;21.00;;;;;;;;;;4991769;28;20495;-77
2024/03/07 06:22:22;;;;;;;34.00;19.63;;;;;;;;;;4992509;28;20045;-77
2024/03/07 06:24:47;;;;;;;39.42;19.33;;;;;;;;;;4994857;28;20049;-76
2024/03/07 06:27:26;;;;;;;34.88;20.58;;;;;;;;;;4995330;28;20033;-77
2024/03/07 06:29:53;;;;;;;29.75;17.02;;;;;;;;;;4991225;28;20050;-77
2024/03/07 06:32:18;;;;;;;35.80;19.48;;;;;;;;;;4991777;28;20034;-77
2024/03/07 06:34:43;;;;;;;36.63;19.45;;;;;;;;;;4992552;28;20072;-77
2024/03/07 06:37:09;;;;;;;31.02;18.10;;;;;;;;;;4992488;28;20030;-77
2024/03/07 06:39:34;;;;;;;39.03;20.42;;;;;;;;;;4994470;28;20031;-77
2024/03/07 06:42:00;;;;;;;31.05;17.13;;;;;;;;;;4995256;28;20411;-78
2024/03/07 06:44:26;;;;;;;31.98;16.85;;;;;;;;;;4991542;28;20034;-77
2024/03/07 06:46:51;;;;;;;26.90;15.90;;;;;;;;;;4991412;28;20035;-77
2024/03/07 06:49:17;;;;;;;25.10;14.55;;;;;;;;;;4997618;28;20439;-77
2024/03/07 06:51:42;;;;;;;26.08;15.32;;;;;;;;;;4993043;28;20030;-77
2024/03/07 06:54:07;;;;;;;30.00;16.42;;;;;;;;;;4993260;28;20510;-76
2024/03/07 06:56:33;;;;;;;27.92;17.80;;;;;;;;;;4991040;28;20464;-77
2024/03/07 06:58:59;;;;;;;26.70;16.27;;;;;;;;;;4990934;28;20048;-76
2024/03/07 07:01:24;;;;;;;26.85;16.17;;;;;;;;;;4990744;28;20034;-77
2024/03/07 07:03:49;;;;;;;25.95;14.80;;;;;;;;;;4993555;28;20045;-77
2024/03/07 07:06:15;;;;;;;25.42;15.00;;;;;;;;;;4991162;28;20064;-77
2024/03/07 07:08:40;;;;;;;25.58;14.63;;;;;;;;;;4990920;28;20126;-77
2024/03/07 07:11:05;;;;;;;25.13;14.40;;;;;;;;;;4993963;28;20037;-77
2024/03/07 07:13:31;;;;;;;27.27;15.45;;;;;;;;;;4990725;28;20088;-77
2024/03/07 07:15:56;;;;;;;27.50;15.80;;;;;;;;;;4991103;28;20045;-77
2024/03/07 07:18:23;;;;;;;27.25;15.00;;;;;;;;;;4989341;28;20118;-77
2024/03/07 07:20:49;;;;;;;27.42;14.38;;;;;;;;;;4990652;28;20487;-77
2024/03/07 07:23:14;;;;;;;25.50;15.18;;;;;;;;;;4991022;28;20041;-77
2024/03/07 07:25:40;;;;;;;22.98;13.68;;;;;;;;;;4989655;28;20046;-77
2024/03/07 07:28:07;;;;;;;26.98;15.75;;;;;;;;;;4990524;28;20038;-77
2024/03/07 07:30:33;;;;;;;24.02;14.05;;;;;;;;;;4992231;28;20036;-77
2024/03/07 07:32:58;;;;;;;25.00;14.93;;;;;;;;;;4990382;28;20038;-77
2024/03/07 07:35:24;;;;;;;24.85;14.45;;;;;;;;;;4992912;28;20034;-77
2024/03/07 07:37:50;;;;;;;29.88;16.48;;;;;;;;;;4987749;28;20048;-77
2024/03/07 07:40:18;;;;;;;35.85;21.90;;;;;;;;;;4990611;28;20034;-77
2024/03/07 07:42:46;;;;;;;30.92;18.63;;;;;;;;;;4990126;28;20042;-78
2024/03/07 07:45:12;;;;;;;28.95;15.00;;;;;;;;;;4991913;28;20530;-76
2024/03/07 07:47:40;;;;;;;23.25;13.20;;;;;;;;;;4989882;28;20038;-76
2024/03/07 07:50:12;;;;;;;28.50;13.73;;;;;;;;;;4990583;28;20502;-77
2024/03/07 07:52:39;;;;;;;33.92;18.90;;;;;;;;;;4992016;28;20471;-76
2024/03/07 07:55:04;;;;;;;32.00;19.92;;;;;;;;;;4990639;28;20030;-76
2024/03/07 07:57:30;;;;;;;30.77;17.73;;;;;;;;;;4992388;28;20038;-77
2024/03/07 07:59:55;;;;;;;29.17;16.73;;;;;;;;;;4991895;28;20037;-77
2024/03/07 08:02:22;;;;;;;21.48;12.95;;;;;;;;;;4990167;28;20034;-77
2024/03/07 08:04:49;;;;;;;24.25;13.60;;;;;;;;;;4984689;28;20431;-76
2024/03/07 08:07:14;;;;;;;25.90;15.45;;;;;;;;;;4993171;28;20482;-77
2024/03/07 08:09:39;;;;;;;26.08;15.30;;;;;;;;;;4990316;28;20097;-76
2024/03/07 08:12:06;;;;;;;28.30;15.60;;;;;;;;;;4990918;28;20120;-77
2024/03/07 08:14:31;;;;;;;25.88;14.18;;;;;;;;;;4992389;28;20041;-77
2024/03/07 08:16:56;;;;;;;28.73;17.40;;;;;;;;;;4994197;28;20042;-77
2024/03/07 08:19:22;;;;;;;29.30;16.50;;;;;;;;;;4994134;28;20057;-77
2024/03/07 08:21:47;;;;;;;28.70;16.50;;;;;;;;;;4991421;28;20035;-77
2024/03/07 08:24:12;;;;;;;27.13;15.35;;;;;;;;;;4996455;28;20096;-77
2024/03/07 08:26:37;;;;;;;24.95;15.32;;;;;;;;;;4995129;28;20478;-77
2024/03/07 08:29:03;;;;;;;26.15;15.15;;;;;;;;;;4995904;28;20096;-77
2024/03/07 08:31:28;;;;;;;23.02;14.07;;;;;;;;;;4992151;28;20030;-77
2024/03/07 08:33:53;;;;;;;22.33;13.38;;;;;;;;;;4994649;28;20080;-77
2024/03/07 08:36:19;;;;;;;23.48;14.45;;;;;;;;;;4993055;28;20039;-77
2024/03/07 08:38:46;;;;;;;26.55;15.05;;;;;;;;;;4993286;28;20030;-77
2024/03/07 08:41:11;;;;;;;24.23;14.10;;;;;;;;;;4994125;28;20114;-77
2024/03/07 08:43:37;;;;;;;27.92;14.70;;;;;;;;;;4994260;28;20109;-77
2024/03/07 08:46:02;;;;;;;23.92;13.82;;;;;;;;;;5003264;28;20037;-77
2024/03/07 08:48:28;;;;;;;23.85;14.65;;;;;;;;;;4994694;28;20038;-77
2024/03/07 08:50:53;;;;;;;22.08;13.07;;;;;;;;;;5007160;28;20038;-76
2024/03/07 08:53:18;;;;;;;23.27;13.85;;;;;;;;;;4994331;28;20038;-77
2024/03/07 08:55:43;;;;;;;22.00;12.68;;;;;;;;;;4997580;28;20038;-77
2024/03/07 08:58:09;;;;;;;23.00;13.32;;;;;;;;;;4993360;28;20042;-77
2024/03/07 09:00:34;;;;;;;24.05;13.82;;;;;;;;;;4993096;28;20034;-77
2024/03/07 09:03:03;;;;;;;24.70;13.95;;;;;;;;;;4992913;28;20049;-76
2024/03/07 09:05:28;;;;;;;24.02;13.98;;;;;;;;;;4994509;28;20514;-77
2024/03/07 09:07:54;;;;;;;21.73;12.68;;;;;;;;;;4993775;28;20058;-77
2024/03/07 09:10:19;;;;;;;24.58;13.02;;;;;;;;;;4997741;28;20045;-76
2024/03/07 09:12:45;;;;;;;22.58;12.68;;;;;;;;;;4992790;28;20110;-77
2024/03/07 09:15:11;;;;;;;20.45;12.65;;;;;;;;;;4993035;28;20084;-77
2024/03/07 09:17:37;;;;;;;19.75;12.48;;;;;;;;;;4993085;28;20403;-77
2024/03/07 09:20:05;;;;;;;22.60;13.20;;;;;;;;;;4992969;28;20030;-77
2024/03/07 09:22:31;;;;;;;18.17;11.60;;;;;;;;;;4995387;28;20030;-77
2024/03/07 09:24:56;;;;;;;18.88;12.10;;;;;;;;;;4991917;28;20030;-78
2024/03/07 09:27:21;;;;;;;18.77;11.60;;;;;;;;;;4988214;28;20407;-77
2024/03/07 09:29:50;;;;;;;18.83;10.90;;;;;;;;;;4992254;28;20125;-77
2024/03/07 09:32:15;;;;;;;17.70;10.85;;;;;;;;;;4992378;28;20035;-77
2024/03/07 09:34:40;;;;;;;21.25;12.60;;;;;;;;;;4993490;28;20038;-77
2024/03/07 09:37:09;;;;;;;20.77;12.10;;;;;;;;;;4994898;28;20046;-76
2024/03/07 09:39:34;;;;;;;16.95;9.82;;;;;;;;;;4992148;28;20026;-77
2024/03/07 09:42:05;;;;;;;30.40;18.30;;;;;;;;;;4992177;28;20036;-77
2024/03/07 09:44:31;;;;;;;25.13;13.20;;;;;;;;;;4993283;28;20038;-76
2024/03/07 09:46:58;;;;;;;22.08;12.75;;;;;;;;;;4992804;28;20402;-77
2024/03/07 09:49:24;;;;;;;22.67;14.05;;;;;;;;;;4993864;28;20026;-77
2024/03/07 09:51:54;;;;;;;20.48;13.07;;;;;;;;;;4995356;28;20388;-77
2024/03/07 09:54:19;;;;;;;20.52;12.70;;;;;;;;;;4988813;28;20034;-77
2024/03/07 09:56:45;;;;;;;20.77;12.52;;;;;;;;;;4992150;28;20441;-77
2024/03/07 09:59:12;;;;;;;21.23;11.52;;;;;;;;;;4992160;28;20033;-77
2024/03/07 10:01:37;;;;;;;21.90;12.98;;;;;;;;;;4994596;28;20138;-77
2024/03/07 10:04:11;;;;;;;19.27;11.70;;;;;;;;;;4994661;28;20113;-77
2024/03/07 10:06:37;;;;;;;22.20;13.35;;;;;;;;;;4992036;28;20654;-77
2024/03/07 10:09:03;;;;;;;20.15;12.30;;;;;;;;;;4992250;28;20041;-77
2024/03/07 10:11:29;;;;;;;20.70;12.50;;;;;;;;;;4995223;28;20030;-77
2024/03/07 10:13:54;;;;;;;19.77;12.82;;;;;;;;;;4992645;28;20057;-77
2024/03/07 10:16:20;;;;;;;16.77;11.63;;;;;;;;;;4993761;28;20030;-76
2024/03/07 10:18:45;;;;;;;18.25;10.77;;;;;;;;;;4991760;28;20395;-78
2024/03/07 10:21:13;;;;;;;20.83;12.88;;;;;;;;;;4991706;28;20124;-78
2024/03/07 10:23:38;;;;;;;19.58;10.00;;;;;;;;;;4990183;28;20030;-77
2024/03/07 10:26:04;;;;;;;19.17;10.70;;;;;;;;;;4992921;28;20081;-77
2024/03/07 10:28:31;;;;;;;16.38;10.77;;;;;;;;;;4991922;28;20041;-77
2024/03/07 10:30:56;;;;;;;20.08;13.32;;;;;;;;;;4991606;28;20069;-77
2024/03/07 10:33:25;;;;;;;21.65;13.38;;;;;;;;;;4991565;28;20065;-78
2024/03/07 10:35:52;;;;;;;20.10;11.32;;;;;;;;;;4988051;28;20415;-77
2024/03/07 10:38:18;;;;;;;21.23;12.02;;;;;;;;;;4990828;28;20048;-76
2024/03/07 10:40:46;;;;;;;19.58;12.30;;;;;;;;;;4993232;28;20034;-77
2024/03/07 10:43:14;;;;;;;19.67;9.48;;;;;;;;;;4991306;28;20081;-77
2024/03/07 10:45:47;;;;;;;18.17;10.52;;;;;;;;;;4991396;28;20109;-77
2024/03/07 10:48:13;;;;;;;22.40;10.48;;;;;;;;;;4991255;28;20066;-77
2024/03/07 10:50:57;;;;;;;16.65;10.77;;;;;;;;;;4991052;28;20057;-78
2024/03/07 10:53:32;;;;;;;13.77;8.18;;;;;;;;;;4992177;28;20038;-77
2024/03/07 10:56:00;;;;;;;14.80;8.60;;;;;;;;;;4984066;28;20041;-77
2024/03/07 10:58:36;;;;;;;11.90;7.65;;;;;;;;;;4991090;28;20038;-78
2024/03/07 11:01:05;;;;;;;14.57;8.90;;;;;;;;;;4988584;28;20419;-77
2024/03/07 11:03:32;;;;;;;15.32;8.77;;;;;;;;;;4992766;28;20037;-77
2024/03/07 11:05:58;;;;;;;14.23;8.98;;;;;;;;;;4990887;28;20042;-78
2024/03/07 11:08:26;;;;;;;13.77;8.85;;;;;;;;;;4991106;28;20041;-78
2024/03/07 11:10:51;;;;;;;12.98;8.43;;;;;;;;;;4989732;28;20042;-77
2024/03/07 11:13:17;;;;;;;16.30;10.15;;;;;;;;;;4995091;28;20037;-77
2024/03/07 11:15:44;;;;;;;16.42;11.27;;;;;;;;;;4988928;28;20447;-77
2024/03/07 11:18:12;;;;;;;18.65;10.63;;;;;;;;;;4986489;28;20038;-77
2024/03/07 11:20:38;;;;;;;16.10;9.27;;;;;;;;;;4989171;28;20038;-77
2024/03/07 11:23:22;;;;;;;15.73;9.48;;;;;;;;;;4989988;28;20033;-77
2024/03/07 11:25:48;;;;;;;19.13;10.63;;;;;;;;;;4991153;28;20119;-78
2024/03/07 11:28:15;;;;;;;21.70;12.18;;;;;;;;;;4990712;28;20527;-77
2024/03/07 11:30:41;;;;;;;18.98;10.63;;;;;;;;;;4990312;28;20042;-77
2024/03/07 11:33:06;;;;;;;16.25;10.20;;;;;;;;;;4990242;28;20122;-77
2024/03/07 11:35:34;;;;;;;18.65;11.13;;;;;;;;;;4992456;28;20097;-77
2024/03/07 11:37:59;;;;;;;15.70;9.73;;;;;;;;;;4990768;28;20031;-77
2024/03/07 11:40:24;;;;;;;15.38;9.20;;;;;;;;;;4991617;28;20539;-77
2024/03/07 11:42:54;;;;;;;15.77;9.82;;;;;;;;;;4988806;28;20121;-77
2024/03/07 11:45:25;;;;;;;14.82;9.90;;;;;;;;;;4993365;28;20030;-77
2024/03/07 11:47:57;;;;;;;14.77;9.18;;;;;;;;;;4990235;28;20037;-77
2024/03/07 11:50:25;;;;;;;15.02;8.32;;;;;;;;;;4993177;28;20030;-77
2024/03/07 11:52:50;;;;;;;17.45;10.60;;;;;;;;;;4993818;28;20109;-78
2024/03/07 11:55:16;;;;;;;14.05;8.85;;;;;;;;;;4995564;28;20481;-77
2024/03/07 11:57:44;;;;;;;15.18;9.25;;;;;;;;;;4994230;28;20096;-77
2024/03/07 12:00:10;;;;;;;13.88;8.85;;;;;;;;;;4994249;28;20125;-77
2024/03/07 12:02:38;;;;;;;16.05;9.05;;;;;;;;;;4993677;28;20453;-77
2024/03/07 12:05:05;;;;;;;15.85;9.13;;;;;;;;;;4995766;28;20037;-77
2024/03/07 12:07:30;;;;;;;19.38;8.80;;;;;;;;;;4992692;28;20763;-78
2024/03/07 12:09:56;;;;;;;15.63;8.90;;;;;;;;;;4990470;28;20026;-77
2024/03/07 12:12:21;;;;;;;12.68;8.32;;;;;;;;;;4993828;28;20376;-77
2024/03/07 12:14:47;;;;;;;13.13;8.13;;;;;;;;;;4994612;28;20038;-77
2024/03/07 12:17:14;;;;;;;13.75;7.85;;;;;;;;;;4996153;28;20037;-77
2024/03/07 12:19:40;;;;;;;14.25;9.18;;;;;;;;;;4992328;28;20085;-77
2024/03/07 12:22:12;;;;;;;15.45;11.05;;;;;;;;;;4992692;28;20407;-77
2024/03/07 12:24:38;;;;;;;15.95;9.80;;;;;;;;;;4978223;28;20030;-77
2024/03/07 12:27:09;;;;;;;18.33;13.13;;;;;;;;;;5011391;28;20030;-77
2024/03/07 12:29:34;;;;;;;22.60;13.35;;;;;;;;;;4993729;28;20030;-77
2024/03/07 12:32:00;;;;;;;25.92;17.02;;;;;;;;;;4995491;28;20048;-77
2024/03/07 12:34:26;;;;;;;22.20;13.90;;;;;;;;;;4995529;28;20035;-77
2024/03/07 12:36:55;;;;;;;23.60;15.88;;;;;;;;;;4993736;28;20034;-77
2024/03/07 12:39:24;;;;;;;25.10;17.45;;;;;;;;;;4993750;28;20509;-77
2024/03/07 12:41:52;;;;;;;17.95;10.60;;;;;;;;;;4993259;28;20081;-77
2024/03/07 12:44:18;;;;;;;15.77;8.85;;;;;;;;;;4993290;28;20026;-77
2024/03/07 12:46:45;;;;;;;13.27;7.60;;;;;;;;;;4993526;28;20036;-77
2024/03/07 12:49:11;;;;;;;12.77;8.63;;;;;;;;;;4991877;28;20034;-77
2024/03/07 12:51:36;;;;;;;16.02;8.15;;;;;;;;;;4993088;28;20547;-77
2024/03/07 12:54:04;;;;;;;13.95;9.20;;;;;;;;;;4995304;28;20042;-77
2024/03/07 12:56:34;;;;;;;18.27;9.07;;;;;;;;;;4993323;28;20030;-78
2024/03/07 12:59:00;;;;;;;12.65;8.00;;;;;;;;;;4995277;28;20054;-77
2024/03/07 13:01:26;;;;;;;14.57;8.48;;;;;;;;;;4990830;28;20038;-77
2024/03/07 13:03:53;;;;;;;12.05;8.38;;;;;;;;;;4995696;28;20095;-77
2024/03/07 13:06:29;;;;;;;15.80;9.55;;;;;;;;;;4993607;28;20108;-77
2024/03/07 13:08:56;;;;;;;15.52;9.50;;;;;;;;;;4990087;28;20038;-76
2024/03/07 13:11:21;;;;;;;12.77;8.82;;;;;;;;;;4992666;28;20581;-78
2024/03/07 13:13:47;;;;;;;15.82;9.05;;;;;;;;;;4993263;28;20038;-77
2024/03/07 13:16:12;;;;;;;15.55;9.55;;;;;;;;;;4992896;28;20499;-77
2024/03/07 13:18:37;;;;;;;13.27;8.65;;;;;;;;;;4991456;28;20045;-77
2024/03/07 13:21:07;;;;;;;14.60;9.05;;;;;;;;;;4996613;28;20033;-77
2024/03/07 13:23:32;;;;;;;22.55;13.48;;;;;;;;;;4991131;28;20173;-77
2024/03/07 13:25:59;;;;;;;15.55;10.10;;;;;;;;;;4995310;28;20098;-77
2024/03/07 13:28:25;;;;;;;14.65;9.85;;;;;;;;;;4991618;28;20040;-76
2024/03/07 13:30:54;;;;;;;14.10;8.85;;;;;;;;;;4992637;28;20040;-77
2024/03/07 13:33:19;;;;;;;15.13;10.13;;;;;;;;;;4992511;28;20045;-78
2024/03/07 13:35:44;;;;;;;13.07;9.25;;;;;;;;;;4992135;28;20045;-77
2024/03/07 13:38:10;;;;;;;17.83;9.98;;;;;;;;;;4992032;28;20037;-77
2024/03/07 13:40:38;;;;;;;14.30;9.63;;;;;;;;;;4992037;28;20368;-77
2024/03/07 13:43:03;;;;;;;15.70;11.00;;;;;;;;;;4994749;28;20109;-76
2024/03/07 13:45:38;;;;;;;22.25;12.77;;;;;;;;;;4994915;28;20106;-77
2024/03/07 13:48:05;;;;;;;16.30;10.00;;;;;;;;;;4989514;28;20084;-78
2024/03/07 13:50:31;;;;;;;16.35;9.52;;;;;;;;;;4990894;28;20085;-77
2024/03/07 13:53:18;;;;;;;15.27;9.60;;;;;;;;;;4992166;28;20057;-77
2024/03/07 13:55:53;;;;;;;16.15;10.13;;;;;;;;;;4995797;28;20025;-78
2024/03/07 13:58:47;;;;;;;15.32;8.88;;;;;;;;;;4990649;28;20034;-77
2024/03/07 14:01:33;;;;;;;18.17;11.75;;;;;;;;;;4990108;28;20049;-77
2024/03/07 14:04:16;;;;;;;13.27;9.38;;;;;;;;;;4990136;28;20034;-77
2024/03/07 14:06:45;;;;;;;15.75;11.55;;;;;;;;;;4991885;28;20041;-77
2024/03/07 14:09:22;;;;;;;20.33;11.57;;;;;;;;;;4993357;28;20022;-78
2024/03/07 14:12:10;;;;;;;19.70;15.68;;;;;;;;;;4990426;28;20030;-77
2024/03/07 14:14:36;;;;;;;29.30;20.58;;;;;;;;;;4965284;28;20050;-78